sensor_id;sensor_type;location;lat;lon;timestamp;P1;durP1;ratioP1;P2;durP2;ratioP2
76125;SDS011;65174;48.138;21.002;2023-06-04T00:00:27;1.05;;;0.68;;
76125;SDS011;65174;48.138;21.002;2023-06-04T00:03:30;4.43;;;0.77;;
76125;SDS011;65174;48.138;21.002;2023-06-04T00:06:32;1.08;;;0.88;;
76125;SDS011;65174;48.138;21.002;2023-06-04T00:09:34;3.70;;;0.95;;
76125;SDS011;65174;48.138;21.002;2023-06-04T00:12:36;1.25;;;0.95;;
76125;SDS011;65174;48.138;21.002;2023-06-04T00:15:38;2.00;;;1.48;;
76125;SDS011;65174;48.138;21.002;2023-06-04T00:18:40;0.70;;;0.63;;
76125;SDS011;65174;48.138;21.002;2023-06-04T00:21:42;0.80;;;0.70;;
76125;SDS011;65174;48.138;21.002;2023-06-04T00:24:44;3.50;;;0.65;;
76125;SDS011;65174;48.138;21.002;2023-06-04T00:27:46;1.10;;;0.75;;
76125;SDS011;65174;48.138;21.002;2023-06-04T00:30:48;1.92;;;0.65;;
76125;SDS011;65174;48.138;21.002;2023-06-04T00:33:50;1.27;;;0.80;;
76125;SDS011;65174;48.138;21.002;2023-06-04T00:36:52;1.02;;;0.55;;
76125;SDS011;65174;48.138;21.002;2023-06-04T00:39:55;1.10;;;1.00;;
76125;SDS011;65174;48.138;21.002;2023-06-04T00:42:57;0.60;;;0.60;;
76125;SDS011;65174;48.138;21.002;2023-06-04T00:45:59;2.00;;;0.60;;
76125;SDS011;65174;48.138;21.002;2023-06-04T00:49:02;0.97;;;0.63;;
76125;SDS011;65174;48.138;21.002;2023-06-04T00:52:04;1.05;;;0.73;;
76125;SDS011;65174;48.138;21.002;2023-06-04T00:55:07;1.77;;;0.70;;
76125;SDS011;65174;48.138;21.002;2023-06-04T00:58:09;0.90;;;0.60;;
76125;SDS011;65174;48.138;21.002;2023-06-04T01:02:39;0.88;;;0.52;;
76125;SDS011;65174;48.138;21.002;2023-06-04T01:07:11;1.13;;;0.70;;
76125;SDS011;65174;48.138;21.002;2023-06-04T01:16:17;0.85;;;0.77;;
76125;SDS011;65174;48.138;21.002;2023-06-04T01:19:29;1.35;;;0.60;;
76125;SDS011;65174;48.138;21.002;2023-06-04T01:22:45;1.23;;;0.82;;
76125;SDS011;65174;48.138;21.002;2023-06-04T01:25:50;1.07;;;0.97;;
76125;SDS011;65174;48.138;21.002;2023-06-04T01:28:53;1.45;;;0.88;;
76125;SDS011;65174;48.138;21.002;2023-06-04T01:31:57;1.05;;;0.80;;
76125;SDS011;65174;48.138;21.002;2023-06-04T01:35:00;1.27;;;0.80;;
76125;SDS011;65174;48.138;21.002;2023-06-04T01:38:02;1.65;;;1.00;;
76125;SDS011;65174;48.138;21.002;2023-06-04T01:41:05;3.53;;;0.90;;
76125;SDS011;65174;48.138;21.002;2023-06-04T01:44:08;1.52;;;0.70;;
76125;SDS011;65174;48.138;21.002;2023-06-04T01:47:09;3.45;;;0.90;;
76125;SDS011;65174;48.138;21.002;2023-06-04T01:50:12;0.73;;;0.65;;
76125;SDS011;65174;48.138;21.002;2023-06-04T01:53:14;2.17;;;1.15;;
76125;SDS011;65174;48.138;21.002;2023-06-04T01:56:16;1.03;;;0.63;;
76125;SDS011;65174;48.138;21.002;2023-06-04T01:59:18;1.23;;;0.80;;
76125;SDS011;65174;48.138;21.002;2023-06-04T02:02:20;0.90;;;0.65;;
76125;SDS011;65174;48.138;21.002;2023-06-04T02:05:22;0.73;;;0.60;;
76125;SDS011;65174;48.138;21.002;2023-06-04T02:08:25;1.88;;;0.90;;
76125;SDS011;65174;48.138;21.002;2023-06-04T02:11:29;1.37;;;1.20;;
76125;SDS011;65174;48.138;21.002;2023-06-04T02:14:31;1.10;;;0.73;;
76125;SDS011;65174;48.138;21.002;2023-06-04T02:17:33;2.60;;;1.63;;
76125;SDS011;65174;48.138;21.002;2023-06-04T02:20:39;1.40;;;0.90;;
76125;SDS011;65174;48.138;21.002;2023-06-04T02:23:41;0.70;;;0.70;;
76125;SDS011;65174;48.138;21.002;2023-06-04T02:26:43;1.80;;;0.80;;
76125;SDS011;65174;48.138;21.002;2023-06-04T02:29:45;0.93;;;0.52;;
76125;SDS011;65174;48.138;21.002;2023-06-04T02:32:47;1.40;;;0.70;;
76125;SDS011;65174;48.138;21.002;2023-06-04T02:35:53;1.88;;;1.13;;
76125;SDS011;65174;48.138;21.002;2023-06-04T02:38:56;0.88;;;0.70;;
76125;SDS011;65174;48.138;21.002;2023-06-04T02:41:58;2.83;;;0.93;;
76125;SDS011;65174;48.138;21.002;2023-06-04T02:45:00;1.42;;;0.70;;
76125;SDS011;65174;48.138;21.002;2023-06-04T02:48:02;1.38;;;0.82;;
76125;SDS011;65174;48.138;21.002;2023-06-04T02:51:04;1.10;;;0.80;;
76125;SDS011;65174;48.138;21.002;2023-06-04T02:54:07;0.50;;;0.38;;
76125;SDS011;65174;48.138;21.002;2023-06-04T02:57:09;1.10;;;0.63;;
76125;SDS011;65174;48.138;21.002;2023-06-04T03:00:11;2.03;;;1.00;;
76125;SDS011;65174;48.138;21.002;2023-06-04T03:03:15;0.77;;;0.77;;
76125;SDS011;65174;48.138;21.002;2023-06-04T03:06:18;2.20;;;0.82;;
76125;SDS011;65174;48.138;21.002;2023-06-04T03:09:23;1.35;;;0.90;;
76125;SDS011;65174;48.138;21.002;2023-06-04T03:12:25;1.10;;;0.80;;
76125;SDS011;65174;48.138;21.002;2023-06-04T03:15:27;0.95;;;0.77;;
76125;SDS011;65174;48.138;21.002;2023-06-04T03:18:29;0.73;;;0.60;;
76125;SDS011;65174;48.138;21.002;2023-06-04T03:21:31;1.65;;;0.75;;
76125;SDS011;65174;48.138;21.002;2023-06-04T03:24:38;0.90;;;0.50;;
76125;SDS011;65174;48.138;21.002;2023-06-04T03:27:41;0.87;;;0.50;;
76125;SDS011;65174;48.138;21.002;2023-06-04T03:30:43;1.05;;;0.60;;
76125;SDS011;65174;48.138;21.002;2023-06-04T03:33:45;1.35;;;1.15;;
76125;SDS011;65174;48.138;21.002;2023-06-04T03:36:48;1.40;;;0.52;;
76125;SDS011;65174;48.138;21.002;2023-06-04T03:39:51;0.60;;;0.60;;
76125;SDS011;65174;48.138;21.002;2023-06-04T03:42:53;0.63;;;0.50;;
76125;SDS011;65174;48.138;21.002;2023-06-04T03:46:00;0.80;;;0.63;;
76125;SDS011;65174;48.138;21.002;2023-06-04T03:49:02;0.40;;;0.40;;
76125;SDS011;65174;48.138;21.002;2023-06-04T03:52:05;1.20;;;1.05;;
76125;SDS011;65174;48.138;21.002;2023-06-04T03:55:07;2.53;;;0.82;;
76125;SDS011;65174;48.138;21.002;2023-06-04T03:58:10;1.00;;;0.90;;
76125;SDS011;65174;48.138;21.002;2023-06-04T04:01:17;0.52;;;0.52;;
76125;SDS011;65174;48.138;21.002;2023-06-04T04:04:20;0.82;;;0.60;;
76125;SDS011;65174;48.138;21.002;2023-06-04T04:07:22;1.05;;;0.68;;
76125;SDS011;65174;48.138;21.002;2023-06-04T04:10:26;0.60;;;0.50;;
76125;SDS011;65174;48.138;21.002;2023-06-04T04:13:28;0.70;;;0.70;;
76125;SDS011;65174;48.138;21.002;2023-06-04T04:16:30;1.30;;;0.80;;
76125;SDS011;65174;48.138;21.002;2023-06-04T04:19:33;1.17;;;0.73;;
76125;SDS011;65174;48.138;21.002;2023-06-04T04:22:39;2.08;;;0.73;;
76125;SDS011;65174;48.138;21.002;2023-06-04T04:25:43;1.30;;;0.70;;
76125;SDS011;65174;48.138;21.002;2023-06-04T04:28:46;0.40;;;0.40;;
76125;SDS011;65174;48.138;21.002;2023-06-04T04:31:51;0.90;;;0.60;;
76125;SDS011;65174;48.138;21.002;2023-06-04T04:34:56;5.13;;;0.90;;
76125;SDS011;65174;48.138;21.002;2023-06-04T04:38:04;0.60;;;0.60;;
76125;SDS011;65174;48.138;21.002;2023-06-04T04:41:11;1.00;;;0.60;;
76125;SDS011;65174;48.138;21.002;2023-06-04T04:44:14;4.57;;;0.70;;
76125;SDS011;65174;48.138;21.002;2023-06-04T04:47:16;1.02;;;0.70;;
76125;SDS011;65174;48.138;21.002;2023-06-04T04:50:18;1.38;;;0.85;;
76125;SDS011;65174;48.138;21.002;2023-06-04T04:53:21;1.15;;;0.95;;
76125;SDS011;65174;48.138;21.002;2023-06-04T04:56:23;4.15;;;1.23;;
76125;SDS011;65174;48.138;21.002;2023-06-04T04:59:26;1.30;;;0.97;;
76125;SDS011;65174;48.138;21.002;2023-06-04T05:02:30;0.73;;;0.60;;
76125;SDS011;65174;48.138;21.002;2023-06-04T05:05:33;2.38;;;1.08;;
76125;SDS011;65174;48.138;21.002;2023-06-04T05:08:37;2.80;;;0.77;;
76125;SDS011;65174;48.138;21.002;2023-06-04T05:11:40;2.17;;;1.00;;
76125;SDS011;65174;48.138;21.002;2023-06-04T05:14:42;1.57;;;0.80;;
76125;SDS011;65174;48.138;21.002;2023-06-04T05:17:45;1.30;;;0.95;;
76125;SDS011;65174;48.138;21.002;2023-06-04T05:20:49;1.08;;;0.85;;
76125;SDS011;65174;48.138;21.002;2023-06-04T05:23:51;0.65;;;0.65;;
76125;SDS011;65174;48.138;21.002;2023-06-04T05:26:56;0.57;;;0.50;;
76125;SDS011;65174;48.138;21.002;2023-06-04T05:29:59;0.90;;;0.80;;
76125;SDS011;65174;48.138;21.002;2023-06-04T05:33:02;1.60;;;1.20;;
76125;SDS011;65174;48.138;21.002;2023-06-04T05:36:04;2.13;;;0.70;;
76125;SDS011;65174;48.138;21.002;2023-06-04T05:39:12;1.52;;;0.73;;
76125;SDS011;65174;48.138;21.002;2023-06-04T05:42:25;1.30;;;0.88;;
76125;SDS011;65174;48.138;21.002;2023-06-04T05:45:27;1.40;;;0.90;;
76125;SDS011;65174;48.138;21.002;2023-06-04T05:48:29;0.95;;;0.70;;
76125;SDS011;65174;48.138;21.002;2023-06-04T05:51:31;4.20;;;1.10;;
76125;SDS011;65174;48.138;21.002;2023-06-04T05:54:33;1.75;;;0.73;;
76125;SDS011;65174;48.138;21.002;2023-06-04T05:57:35;4.00;;;0.93;;
76125;SDS011;65174;48.138;21.002;2023-06-04T06:00:38;1.20;;;0.90;;
76125;SDS011;65174;48.138;21.002;2023-06-04T06:03:40;0.95;;;0.75;;
76125;SDS011;65174;48.138;21.002;2023-06-04T06:06:42;1.00;;;0.70;;
76125;SDS011;65174;48.138;21.002;2023-06-04T06:09:50;0.95;;;0.70;;
76125;SDS011;65174;48.138;21.002;2023-06-04T06:12:52;1.10;;;1.08;;
76125;SDS011;65174;48.138;21.002;2023-06-04T06:15:55;0.90;;;0.57;;
76125;SDS011;65174;48.138;21.002;2023-06-04T06:18:59;0.77;;;0.60;;
76125;SDS011;65174;48.138;21.002;2023-06-04T06:22:02;1.08;;;0.52;;
76125;SDS011;65174;48.138;21.002;2023-06-04T06:25:05;0.85;;;0.75;;
76125;SDS011;65174;48.138;21.002;2023-06-04T06:28:12;1.60;;;0.70;;
76125;SDS011;65174;48.138;21.002;2023-06-04T06:31:15;0.87;;;0.70;;
76125;SDS011;65174;48.138;21.002;2023-06-04T06:34:18;0.90;;;0.90;;
76125;SDS011;65174;48.138;21.002;2023-06-04T06:37:20;1.05;;;0.77;;
76125;SDS011;65174;48.138;21.002;2023-06-04T06:40:22;1.83;;;0.77;;
76125;SDS011;65174;48.138;21.002;2023-06-04T06:43:24;0.90;;;0.60;;
76125;SDS011;65174;48.138;21.002;2023-06-04T06:46:26;0.93;;;0.83;;
76125;SDS011;65174;48.138;21.002;2023-06-04T06:49:28;0.68;;;0.57;;
76125;SDS011;65174;48.138;21.002;2023-06-04T06:52:30;3.67;;;0.80;;
76125;SDS011;65174;48.138;21.002;2023-06-04T06:55:35;1.10;;;0.80;;
76125;SDS011;65174;48.138;21.002;2023-06-04T06:58:37;1.15;;;0.93;;
76125;SDS011;65174;48.138;21.002;2023-06-04T07:01:39;2.33;;;1.10;;
76125;SDS011;65174;48.138;21.002;2023-06-04T07:04:41;0.90;;;0.80;;
76125;SDS011;65174;48.138;21.002;2023-06-04T07:07:43;1.77;;;0.80;;
76125;SDS011;65174;48.138;21.002;2023-06-04T07:10:45;1.95;;;0.75;;
76125;SDS011;65174;48.138;21.002;2023-06-04T07:13:47;1.27;;;0.70;;
76125;SDS011;65174;48.138;21.002;2023-06-04T07:16:49;1.40;;;1.13;;
76125;SDS011;65174;48.138;21.002;2023-06-04T07:19:51;2.13;;;0.90;;
76125;SDS011;65174;48.138;21.002;2023-06-04T07:22:53;0.60;;;0.50;;
76125;SDS011;65174;48.138;21.002;2023-06-04T07:25:55;1.60;;;0.95;;
76125;SDS011;65174;48.138;21.002;2023-06-04T07:28:57;0.80;;;0.70;;
76125;SDS011;65174;48.138;21.002;2023-06-04T07:31:59;2.17;;;1.07;;
76125;SDS011;65174;48.138;21.002;2023-06-04T07:35:02;1.15;;;0.70;;
76125;SDS011;65174;48.138;21.002;2023-06-04T07:38:04;2.05;;;0.77;;
76125;SDS011;65174;48.138;21.002;2023-06-04T07:41:06;3.15;;;0.90;;
76125;SDS011;65174;48.138;21.002;2023-06-04T07:44:09;1.45;;;1.35;;
76125;SDS011;65174;48.138;21.002;2023-06-04T07:47:11;2.03;;;1.00;;
76125;SDS011;65174;48.138;21.002;2023-06-04T07:50:13;1.90;;;1.08;;
76125;SDS011;65174;48.138;21.002;2023-06-04T07:53:15;2.15;;;0.85;;
76125;SDS011;65174;48.138;21.002;2023-06-04T07:57:16;1.08;;;0.80;;
76125;SDS011;65174;48.138;21.002;2023-06-04T08:01:18;1.67;;;1.25;;
76125;SDS011;65174;48.138;21.002;2023-06-04T08:05:20;1.30;;;0.83;;
76125;SDS011;65174;48.138;21.002;2023-06-04T08:08:22;6.07;;;0.85;;
76125;SDS011;65174;48.138;21.002;2023-06-04T08:11:24;1.30;;;0.90;;
76125;SDS011;65174;48.138;21.002;2023-06-04T08:14:26;0.95;;;0.77;;
76125;SDS011;65174;48.138;21.002;2023-06-04T08:17:29;1.17;;;0.63;;
76125;SDS011;65174;48.138;21.002;2023-06-04T08:20:30;0.93;;;0.70;;
76125;SDS011;65174;48.138;21.002;2023-06-04T08:23:32;0.77;;;0.77;;
76125;SDS011;65174;48.138;21.002;2023-06-04T08:26:34;1.00;;;0.70;;
76125;SDS011;65174;48.138;21.002;2023-06-04T08:29:36;1.00;;;0.90;;
76125;SDS011;65174;48.138;21.002;2023-06-04T08:32:38;0.80;;;0.80;;
76125;SDS011;65174;48.138;21.002;2023-06-04T08:35:42;1.33;;;0.80;;
76125;SDS011;65174;48.138;21.002;2023-06-04T08:38:44;1.13;;;0.70;;
76125;SDS011;65174;48.138;21.002;2023-06-04T08:41:52;1.50;;;0.80;;
76125;SDS011;65174;48.138;21.002;2023-06-04T08:44:58;1.55;;;0.80;;
76125;SDS011;65174;48.138;21.002;2023-06-04T08:48:00;1.38;;;0.75;;
76125;SDS011;65174;48.138;21.002;2023-06-04T08:51:02;0.87;;;0.70;;
76125;SDS011;65174;48.138;21.002;2023-06-04T08:54:09;0.75;;;0.75;;
76125;SDS011;65174;48.138;21.002;2023-06-04T08:57:13;1.33;;;0.63;;
76125;SDS011;65174;48.138;21.002;2023-06-04T09:00:16;0.90;;;0.85;;
76125;SDS011;65174;48.138;21.002;2023-06-04T09:03:19;2.05;;;1.10;;
76125;SDS011;65174;48.138;21.002;2023-06-04T09:06:24;1.23;;;0.80;;
76125;SDS011;65174;48.138;21.002;2023-06-04T09:09:27;0.82;;;0.82;;
76125;SDS011;65174;48.138;21.002;2023-06-04T09:12:31;2.17;;;0.90;;
76125;SDS011;65174;48.138;21.002;2023-06-04T09:15:37;0.80;;;0.77;;
76125;SDS011;65174;48.138;21.002;2023-06-04T09:18:39;0.70;;;0.63;;
76125;SDS011;65174;48.138;21.002;2023-06-04T09:21:45;1.13;;;1.00;;
76125;SDS011;65174;48.138;21.002;2023-06-04T09:25:06;1.17;;;0.73;;
76125;SDS011;65174;48.138;21.002;2023-06-04T09:28:11;1.40;;;0.90;;
76125;SDS011;65174;48.138;21.002;2023-06-04T09:31:14;1.00;;;0.90;;
76125;SDS011;65174;48.138;21.002;2023-06-04T09:34:26;4.28;;;1.38;;
76125;SDS011;65174;48.138;21.002;2023-06-04T09:37:29;1.07;;;0.90;;
76125;SDS011;65174;48.138;21.002;2023-06-04T09:40:35;1.27;;;0.88;;
76125;SDS011;65174;48.138;21.002;2023-06-04T09:43:39;1.30;;;0.70;;
76125;SDS011;65174;48.138;21.002;2023-06-04T09:46:41;1.52;;;0.85;;
76125;SDS011;65174;48.138;21.002;2023-06-04T09:49:54;2.78;;;0.98;;
76125;SDS011;65174;48.138;21.002;2023-06-04T09:52:56;1.37;;;0.73;;
76125;SDS011;65174;48.138;21.002;2023-06-04T09:55:58;1.38;;;1.10;;
76125;SDS011;65174;48.138;21.002;2023-06-04T09:59:12;3.03;;;1.15;;
76125;SDS011;65174;48.138;21.002;2023-06-04T10:02:18;1.00;;;0.80;;
76125;SDS011;65174;48.138;21.002;2023-06-04T10:05:22;0.90;;;0.90;;
76125;SDS011;65174;48.138;21.002;2023-06-04T10:08:25;1.23;;;0.90;;
76125;SDS011;65174;48.138;21.002;2023-06-04T10:11:31;3.33;;;0.80;;
76125;SDS011;65174;48.138;21.002;2023-06-04T10:14:38;1.13;;;0.73;;
76125;SDS011;65174;48.138;21.002;2023-06-04T10:17:45;0.90;;;0.68;;
76125;SDS011;65174;48.138;21.002;2023-06-04T10:20:49;1.10;;;0.85;;
76125;SDS011;65174;48.138;21.002;2023-06-04T10:23:51;1.70;;;1.17;;
76125;SDS011;65174;48.138;21.002;2023-06-04T10:26:54;1.20;;;0.90;;
76125;SDS011;65174;48.138;21.002;2023-06-04T10:29:57;4.65;;;0.80;;
76125;SDS011;65174;48.138;21.002;2023-06-04T10:33:00;1.10;;;0.80;;
76125;SDS011;65174;48.138;21.002;2023-06-04T10:36:15;1.10;;;0.90;;
76125;SDS011;65174;48.138;21.002;2023-06-04T10:39:26;2.00;;;0.83;;
76125;SDS011;65174;48.138;21.002;2023-06-04T10:42:37;1.48;;;0.90;;
76125;SDS011;65174;48.138;21.002;2023-06-04T10:45:40;0.93;;;0.80;;
76125;SDS011;65174;48.138;21.002;2023-06-04T10:48:52;2.08;;;1.17;;
76125;SDS011;65174;48.138;21.002;2023-06-04T10:51:55;2.33;;;0.65;;
76125;SDS011;65174;48.138;21.002;2023-06-04T10:55:02;2.47;;;1.00;;
76125;SDS011;65174;48.138;21.002;2023-06-04T10:58:06;0.98;;;0.57;;
76125;SDS011;65174;48.138;21.002;2023-06-04T11:01:08;2.83;;;1.20;;
76125;SDS011;65174;48.138;21.002;2023-06-04T11:04:24;1.25;;;1.08;;
76125;SDS011;65174;48.138;21.002;2023-06-04T11:07:27;1.88;;;0.70;;
76125;SDS011;65174;48.138;21.002;2023-06-04T11:10:31;1.93;;;1.10;;
76125;SDS011;65174;48.138;21.002;2023-06-04T11:13:35;2.53;;;1.27;;
76125;SDS011;65174;48.138;21.002;2023-06-04T11:16:37;0.90;;;0.85;;
76125;SDS011;65174;48.138;21.002;2023-06-04T11:19:39;1.38;;;0.80;;
76125;SDS011;65174;48.138;21.002;2023-06-04T11:22:41;2.83;;;0.90;;
76125;SDS011;65174;48.138;21.002;2023-06-04T11:25:43;3.13;;;0.90;;
76125;SDS011;65174;48.138;21.002;2023-06-04T11:28:48;1.77;;;0.98;;
76125;SDS011;65174;48.138;21.002;2023-06-04T11:31:50;1.13;;;0.77;;
76125;SDS011;65174;48.138;21.002;2023-06-04T11:35:01;1.50;;;0.82;;
76125;SDS011;65174;48.138;21.002;2023-06-04T11:38:08;2.78;;;1.17;;
76125;SDS011;65174;48.138;21.002;2023-06-04T11:41:11;0.97;;;0.80;;
76125;SDS011;65174;48.138;21.002;2023-06-04T11:44:13;1.95;;;1.20;;
76125;SDS011;65174;48.138;21.002;2023-06-04T11:47:16;1.58;;;1.40;;
76125;SDS011;65174;48.138;21.002;2023-06-04T11:50:18;3.42;;;2.55;;
76125;SDS011;65174;48.138;21.002;2023-06-04T11:53:21;1.50;;;1.35;;
76125;SDS011;65174;48.138;21.002;2023-06-04T11:56:23;1.80;;;1.43;;
76125;SDS011;65174;48.138;21.002;2023-06-04T11:59:27;1.25;;;1.00;;
76125;SDS011;65174;48.138;21.002;2023-06-04T12:02:30;1.42;;;1.00;;
76125;SDS011;65174;48.138;21.002;2023-06-04T12:05:32;2.05;;;1.40;;
76125;SDS011;65174;48.138;21.002;2023-06-04T12:08:34;1.90;;;0.85;;
76125;SDS011;65174;48.138;21.002;2023-06-04T12:11:57;2.10;;;1.23;;
76125;SDS011;65174;48.138;21.002;2023-06-04T12:15:01;2.15;;;1.40;;
76125;SDS011;65174;48.138;21.002;2023-06-04T12:18:03;1.80;;;0.95;;
76125;SDS011;65174;48.138;21.002;2023-06-04T12:21:15;1.50;;;1.20;;
76125;SDS011;65174;48.138;21.002;2023-06-04T12:24:29;1.55;;;0.90;;
76125;SDS011;65174;48.138;21.002;2023-06-04T12:27:46;2.83;;;1.07;;
76125;SDS011;65174;48.138;21.002;2023-06-04T12:30:48;1.40;;;1.08;;
76125;SDS011;65174;48.138;21.002;2023-06-04T12:33:51;1.52;;;1.05;;
76125;SDS011;65174;48.138;21.002;2023-06-04T12:36:53;1.02;;;0.82;;
76125;SDS011;65174;48.138;21.002;2023-06-04T12:39:55;1.80;;;0.93;;
76125;SDS011;65174;48.138;21.002;2023-06-04T12:42:57;2.23;;;0.80;;
76125;SDS011;65174;48.138;21.002;2023-06-04T12:45:59;0.77;;;0.70;;
76125;SDS011;65174;48.138;21.002;2023-06-04T12:49:01;2.42;;;1.23;;
76125;SDS011;65174;48.138;21.002;2023-06-04T12:52:04;2.83;;;1.30;;
76125;SDS011;65174;48.138;21.002;2023-06-04T12:55:06;1.70;;;1.00;;
76125;SDS011;65174;48.138;21.002;2023-06-04T12:58:09;1.30;;;1.00;;
76125;SDS011;65174;48.138;21.002;2023-06-04T13:01:11;2.05;;;1.40;;
76125;SDS011;65174;48.138;21.002;2023-06-04T13:04:14;1.80;;;1.02;;
76125;SDS011;65174;48.138;21.002;2023-06-04T13:07:17;1.10;;;0.82;;
76125;SDS011;65174;48.138;21.002;2023-06-04T13:10:19;1.00;;;0.82;;
76125;SDS011;65174;48.138;21.002;2023-06-04T13:13:21;1.07;;;0.80;;
76125;SDS011;65174;48.138;21.002;2023-06-04T13:16:23;1.08;;;0.98;;
76125;SDS011;65174;48.138;21.002;2023-06-04T13:19:25;1.58;;;1.27;;
76125;SDS011;65174;48.138;21.002;2023-06-04T13:22:28;1.50;;;0.70;;
76125;SDS011;65174;48.138;21.002;2023-06-04T13:25:30;1.35;;;1.15;;
76125;SDS011;65174;48.138;21.002;2023-06-04T13:28:34;2.53;;;1.10;;
76125;SDS011;65174;48.138;21.002;2023-06-04T13:31:36;1.13;;;0.82;;
76125;SDS011;65174;48.138;21.002;2023-06-04T13:34:40;3.08;;;1.00;;
76125;SDS011;65174;48.138;21.002;2023-06-04T13:37:42;1.38;;;1.25;;
76125;SDS011;65174;48.138;21.002;2023-06-04T13:40:44;1.08;;;0.90;;
76125;SDS011;65174;48.138;21.002;2023-06-04T13:43:46;1.53;;;1.03;;
76125;SDS011;65174;48.138;21.002;2023-06-04T13:46:48;1.42;;;1.13;;
76125;SDS011;65174;48.138;21.002;2023-06-04T13:49:50;1.48;;;1.08;;
76125;SDS011;65174;48.138;21.002;2023-06-04T13:52:53;1.45;;;1.00;;
76125;SDS011;65174;48.138;21.002;2023-06-04T13:55:54;1.27;;;0.90;;
76125;SDS011;65174;48.138;21.002;2023-06-04T13:58:59;1.20;;;1.10;;
76125;SDS011;65174;48.138;21.002;2023-06-04T14:02:02;1.42;;;1.15;;
76125;SDS011;65174;48.138;21.002;2023-06-04T14:05:04;1.45;;;1.08;;
76125;SDS011;65174;48.138;21.002;2023-06-04T14:08:06;1.15;;;1.00;;
76125;SDS011;65174;48.138;21.002;2023-06-04T14:11:08;1.33;;;1.02;;
76125;SDS011;65174;48.138;21.002;2023-06-04T14:14:12;1.57;;;1.13;;
76125;SDS011;65174;48.138;21.002;2023-06-04T14:17:14;1.70;;;1.15;;
76125;SDS011;65174;48.138;21.002;2023-06-04T14:20:16;1.63;;;1.40;;
76125;SDS011;65174;48.138;21.002;2023-06-04T14:23:18;1.33;;;1.20;;
76125;SDS011;65174;48.138;21.002;2023-06-04T14:26:20;1.67;;;1.35;;
76125;SDS011;65174;48.138;21.002;2023-06-04T14:33:46;2.28;;;1.02;;
76125;SDS011;65174;48.138;21.002;2023-06-04T14:36:48;1.52;;;1.00;;
76125;SDS011;65174;48.138;21.002;2023-06-04T14:39:50;1.20;;;1.02;;
76125;SDS011;65174;48.138;21.002;2023-06-04T14:42:52;1.50;;;1.10;;
76125;SDS011;65174;48.138;21.002;2023-06-04T14:45:54;1.77;;;1.27;;
76125;SDS011;65174;48.138;21.002;2023-06-04T14:48:56;2.05;;;1.15;;
76125;SDS011;65174;48.138;21.002;2023-06-04T14:51:58;2.33;;;1.33;;
76125;SDS011;65174;48.138;21.002;2023-06-04T14:55:00;1.63;;;1.40;;
76125;SDS011;65174;48.138;21.002;2023-06-04T14:58:02;1.10;;;0.80;;
76125;SDS011;65174;48.138;21.002;2023-06-04T15:01:07;1.47;;;1.03;;
76125;SDS011;65174;48.138;21.002;2023-06-04T15:04:12;1.77;;;1.40;;
76125;SDS011;65174;48.138;21.002;2023-06-04T15:07:14;3.40;;;1.15;;
76125;SDS011;65174;48.138;21.002;2023-06-04T15:10:16;1.40;;;1.20;;
76125;SDS011;65174;48.138;21.002;2023-06-04T15:13:18;3.35;;;1.20;;
76125;SDS011;65174;48.138;21.002;2023-06-04T15:16:20;1.17;;;1.00;;
76125;SDS011;65174;48.138;21.002;2023-06-04T15:19:22;1.10;;;1.00;;
76125;SDS011;65174;48.138;21.002;2023-06-04T15:22:24;2.25;;;1.33;;
76125;SDS011;65174;48.138;21.002;2023-06-04T15:25:27;2.08;;;1.15;;
76125;SDS011;65174;48.138;21.002;2023-06-04T15:32:28;1.43;;;1.07;;
76125;SDS011;65174;48.138;21.002;2023-06-04T15:35:30;1.30;;;1.17;;
76125;SDS011;65174;48.138;21.002;2023-06-04T15:38:32;3.53;;;1.00;;
76125;SDS011;65174;48.138;21.002;2023-06-04T15:41:35;4.00;;;1.20;;
76125;SDS011;65174;48.138;21.002;2023-06-04T15:44:37;2.70;;;1.60;;
76125;SDS011;65174;48.138;21.002;2023-06-04T15:47:39;1.50;;;1.40;;
76125;SDS011;65174;48.138;21.002;2023-06-04T15:50:41;2.10;;;1.23;;
76125;SDS011;65174;48.138;21.002;2023-06-04T15:53:43;1.20;;;1.05;;
76125;SDS011;65174;48.138;21.002;2023-06-04T15:56:47;1.88;;;1.00;;
76125;SDS011;65174;48.138;21.002;2023-06-04T15:59:49;1.40;;;1.30;;
76125;SDS011;65174;48.138;21.002;2023-06-04T16:02:51;5.30;;;1.50;;
76125;SDS011;65174;48.138;21.002;2023-06-04T16:05:53;1.48;;;1.20;;
76125;SDS011;65174;48.138;21.002;2023-06-04T16:08:55;1.23;;;1.13;;
76125;SDS011;65174;48.138;21.002;2023-06-04T16:11:57;1.42;;;1.20;;
76125;SDS011;65174;48.138;21.002;2023-06-04T16:14:59;1.95;;;1.25;;
76125;SDS011;65174;48.138;21.002;2023-06-04T16:18:01;1.90;;;1.27;;
76125;SDS011;65174;48.138;21.002;2023-06-04T16:21:03;1.50;;;0.98;;
76125;SDS011;65174;48.138;21.002;2023-06-04T16:24:06;1.35;;;0.80;;
76125;SDS011;65174;48.138;21.002;2023-06-04T16:27:08;1.92;;;1.08;;
76125;SDS011;65174;48.138;21.002;2023-06-04T16:30:10;3.13;;;1.40;;
76125;SDS011;65174;48.138;21.002;2023-06-04T16:33:13;2.90;;;1.33;;
76125;SDS011;65174;48.138;21.002;2023-06-04T16:36:15;4.05;;;1.40;;
76125;SDS011;65174;48.138;21.002;2023-06-04T16:40:16;1.42;;;1.33;;
76125;SDS011;65174;48.138;21.002;2023-06-04T16:44:18;2.42;;;1.35;;
76125;SDS011;65174;48.138;21.002;2023-06-04T16:47:22;1.27;;;0.98;;
76125;SDS011;65174;48.138;21.002;2023-06-04T16:50:25;2.37;;;1.20;;
76125;SDS011;65174;48.138;21.002;2023-06-04T16:53:28;1.63;;;1.08;;
76125;SDS011;65174;48.138;21.002;2023-06-04T16:56:31;1.85;;;1.25;;
76125;SDS011;65174;48.138;21.002;2023-06-04T16:59:33;5.65;;;1.00;;
76125;SDS011;65174;48.138;21.002;2023-06-04T17:02:35;3.42;;;1.50;;
76125;SDS011;65174;48.138;21.002;2023-06-04T17:05:37;3.03;;;1.60;;
76125;SDS011;65174;48.138;21.002;2023-06-04T17:08:39;2.75;;;1.70;;
76125;SDS011;65174;48.138;21.002;2023-06-04T17:11:42;1.45;;;1.30;;
76125;SDS011;65174;48.138;21.002;2023-06-04T17:14:45;1.63;;;1.20;;
76125;SDS011;65174;48.138;21.002;2023-06-04T17:17:47;2.08;;;1.52;;
76125;SDS011;65174;48.138;21.002;2023-06-04T17:20:51;3.67;;;2.03;;
76125;SDS011;65174;48.138;21.002;2023-06-04T17:23:53;3.72;;;2.20;;
76125;SDS011;65174;48.138;21.002;2023-06-04T17:26:55;4.65;;;2.35;;
76125;SDS011;65174;48.138;21.002;2023-06-04T17:29:57;5.22;;;2.83;;
76125;SDS011;65174;48.138;21.002;2023-06-04T17:33:00;4.57;;;2.50;;
76125;SDS011;65174;48.138;21.002;2023-06-04T17:36:02;4.20;;;2.47;;
76125;SDS011;65174;48.138;21.002;2023-06-04T17:39:04;2.65;;;1.85;;
76125;SDS011;65174;48.138;21.002;2023-06-04T17:42:06;3.17;;;1.60;;
76125;SDS011;65174;48.138;21.002;2023-06-04T17:45:09;4.25;;;2.20;;
76125;SDS011;65174;48.138;21.002;2023-06-04T17:48:11;2.88;;;1.70;;
76125;SDS011;65174;48.138;21.002;2023-06-04T17:51:13;2.83;;;2.10;;
76125;SDS011;65174;48.138;21.002;2023-06-04T17:54:16;4.40;;;2.20;;
76125;SDS011;65174;48.138;21.002;2023-06-04T17:57:18;2.47;;;1.90;;
76125;SDS011;65174;48.138;21.002;2023-06-04T18:00:20;5.60;;;2.97;;
76125;SDS011;65174;48.138;21.002;2023-06-04T18:03:22;6.88;;;2.38;;
76125;SDS011;65174;48.138;21.002;2023-06-04T18:06:25;6.03;;;2.70;;
76125;SDS011;65174;48.138;21.002;2023-06-04T18:09:27;7.38;;;2.80;;
76125;SDS011;65174;48.138;21.002;2023-06-04T18:12:29;6.40;;;2.92;;
76125;SDS011;65174;48.138;21.002;2023-06-04T18:15:33;4.40;;;3.08;;
76125;SDS011;65174;48.138;21.002;2023-06-04T18:18:35;4.80;;;2.72;;
76125;SDS011;65174;48.138;21.002;2023-06-04T18:21:37;11.43;;;3.97;;
76125;SDS011;65174;48.138;21.002;2023-06-04T18:24:39;7.07;;;3.95;;
76125;SDS011;65174;48.138;21.002;2023-06-04T18:31:19;2.90;;;1.67;;